sensor_id;sensor_type;location;lat;lon;timestamp;P1;durP1;ratioP1;P2;durP2;ratioP2
15929;SDS011;8064;51.142;4.780;2023-12-07T00:00:59;32.77;;;9.93;;
15929;SDS011;8064;51.142;4.780;2023-12-07T00:03:25;57.43;;;10.93;;
15929;SDS011;8064;51.142;4.780;2023-12-07T00:05:50;50.53;;;11.30;;
15929;SDS011;8064;51.142;4.780;2023-12-07T00:08:16;62.13;;;11.67;;
15929;SDS011;8064;51.142;4.780;2023-12-07T00:10:42;50.50;;;10.80;;
15929;SDS011;8064;51.142;4.780;2023-12-07T00:13:07;50.83;;;10.50;;
15929;SDS011;8064;51.142;4.780;2023-12-07T00:15:33;63.07;;;11.83;;
15929;SDS011;8064;51.142;4.780;2023-12-07T00:17:59;37.40;;;10.67;;
15929;SDS011;8064;51.142;4.780;2023-12-07T00:20:25;50.90;;;11.20;;
15929;SDS011;8064;51.142;4.780;2023-12-07T00:22:51;89.37;;;13.17;;
15929;SDS011;8064;51.142;4.780;2023-12-07T00:25:17;42.17;;;11.57;;
15929;SDS011;8064;51.142;4.780;2023-12-07T00:27:42;70.07;;;13.50;;
15929;SDS011;8064;51.142;4.780;2023-12-07T00:30:08;56.23;;;12.20;;
15929;SDS011;8064;51.142;4.780;2023-12-07T00:32:35;39.83;;;11.87;;
15929;SDS011;8064;51.142;4.780;2023-12-07T00:35:00;42.33;;;12.37;;
15929;SDS011;8064;51.142;4.780;2023-12-07T00:37:26;44.80;;;11.87;;
15929;SDS011;8064;51.142;4.780;2023-12-07T00:39:52;75.70;;;13.07;;
15929;SDS011;8064;51.142;4.780;2023-12-07T00:42:18;72.20;;;14.00;;
15929;SDS011;8064;51.142;4.780;2023-12-07T00:44:43;50.77;;;12.10;;
15929;SDS011;8064;51.142;4.780;2023-12-07T00:47:09;41.70;;;12.30;;
15929;SDS011;8064;51.142;4.780;2023-12-07T00:49:38;57.23;;;13.53;;
15929;SDS011;8064;51.142;4.780;2023-12-07T00:52:05;71.47;;;13.73;;
15929;SDS011;8064;51.142;4.780;2023-12-07T00:54:32;75.90;;;12.67;;
15929;SDS011;8064;51.142;4.780;2023-12-07T00:56:57;59.07;;;12.17;;
15929;SDS011;8064;51.142;4.780;2023-12-07T00:59:23;52.53;;;11.50;;
15929;SDS011;8064;51.142;4.780;2023-12-07T01:01:50;63.57;;;11.57;;
15929;SDS011;8064;51.142;4.780;2023-12-07T01:04:15;80.07;;;12.70;;
15929;SDS011;8064;51.142;4.780;2023-12-07T01:06:42;33.93;;;11.13;;
15929;SDS011;8064;51.142;4.780;2023-12-07T01:09:08;73.43;;;11.57;;
15929;SDS011;8064;51.142;4.780;2023-12-07T01:11:38;57.70;;;11.43;;
15929;SDS011;8064;51.142;4.780;2023-12-07T01:14:05;37.07;;;10.07;;
15929;SDS011;8064;51.142;4.780;2023-12-07T01:16:31;66.07;;;11.13;;
15929;SDS011;8064;51.142;4.780;2023-12-07T01:18:57;55.47;;;9.67;;
15929;SDS011;8064;51.142;4.780;2023-12-07T01:21:23;95.40;;;10.73;;
15929;SDS011;8064;51.142;4.780;2023-12-07T01:23:49;53.10;;;10.23;;
15929;SDS011;8064;51.142;4.780;2023-12-07T01:26:14;73.77;;;12.47;;
15929;SDS011;8064;51.142;4.780;2023-12-07T01:28:40;54.53;;;10.97;;
15929;SDS011;8064;51.142;4.780;2023-12-07T01:31:06;86.40;;;12.80;;
15929;SDS011;8064;51.142;4.780;2023-12-07T01:33:32;64.50;;;10.53;;
15929;SDS011;8064;51.142;4.780;2023-12-07T01:35:57;48.27;;;10.60;;
15929;SDS011;8064;51.142;4.780;2023-12-07T01:38:23;57.53;;;10.87;;
15929;SDS011;8064;51.142;4.780;2023-12-07T01:40:49;62.80;;;10.67;;
15929;SDS011;8064;51.142;4.780;2023-12-07T01:43:15;59.03;;;10.57;;
15929;SDS011;8064;51.142;4.780;2023-12-07T01:45:40;67.90;;;11.10;;
15929;SDS011;8064;51.142;4.780;2023-12-07T01:48:06;61.77;;;12.53;;
15929;SDS011;8064;51.142;4.780;2023-12-07T01:50:32;46.73;;;10.83;;
15929;SDS011;8064;51.142;4.780;2023-12-07T01:53:00;86.10;;;14.07;;
15929;SDS011;8064;51.142;4.780;2023-12-07T01:55:27;90.10;;;11.87;;
15929;SDS011;8064;51.142;4.780;2023-12-07T01:57:54;72.57;;;11.87;;
15929;SDS011;8064;51.142;4.780;2023-12-07T02:00:20;60.17;;;12.57;;
15929;SDS011;8064;51.142;4.780;2023-12-07T02:02:46;36.57;;;11.03;;
15929;SDS011;8064;51.142;4.780;2023-12-07T02:05:12;37.33;;;11.07;;
15929;SDS011;8064;51.142;4.780;2023-12-07T02:07:40;49.97;;;13.30;;
15929;SDS011;8064;51.142;4.780;2023-12-07T02:10:07;65.40;;;13.33;;
15929;SDS011;8064;51.142;4.780;2023-12-07T02:12:33;105.30;;;13.93;;
15929;SDS011;8064;51.142;4.780;2023-12-07T02:15:00;91.17;;;14.07;;
15929;SDS011;8064;51.142;4.780;2023-12-07T02:17:32;73.07;;;12.57;;
15929;SDS011;8064;51.142;4.780;2023-12-07T02:20:01;56.23;;;11.63;;
15929;SDS011;8064;51.142;4.780;2023-12-07T02:22:32;41.23;;;12.67;;
15929;SDS011;8064;51.142;4.780;2023-12-07T02:25:04;54.53;;;13.30;;
15929;SDS011;8064;51.142;4.780;2023-12-07T02:27:32;46.77;;;12.87;;
15929;SDS011;8064;51.142;4.780;2023-12-07T02:30:00;39.27;;;12.50;;
15929;SDS011;8064;51.142;4.780;2023-12-07T02:32:26;86.90;;;13.83;;
15929;SDS011;8064;51.142;4.780;2023-12-07T02:34:51;82.17;;;13.17;;
15929;SDS011;8064;51.142;4.780;2023-12-07T02:37:17;60.47;;;13.80;;
15929;SDS011;8064;51.142;4.780;2023-12-07T02:39:44;52.73;;;13.33;;
15929;SDS011;8064;51.142;4.780;2023-12-07T02:42:10;61.00;;;12.23;;
15929;SDS011;8064;51.142;4.780;2023-12-07T02:44:38;59.23;;;13.10;;
15929;SDS011;8064;51.142;4.780;2023-12-07T02:47:05;47.77;;;12.93;;
15929;SDS011;8064;51.142;4.780;2023-12-07T02:49:31;72.43;;;13.57;;
15929;SDS011;8064;51.142;4.780;2023-12-07T02:51:56;51.33;;;12.40;;
15929;SDS011;8064;51.142;4.780;2023-12-07T02:54:22;49.03;;;13.33;;
15929;SDS011;8064;51.142;4.780;2023-12-07T02:56:48;52.40;;;15.50;;
15929;SDS011;8064;51.142;4.780;2023-12-07T02:59:14;64.53;;;12.47;;
15929;SDS011;8064;51.142;4.780;2023-12-07T03:01:39;55.97;;;13.93;;
15929;SDS011;8064;51.142;4.780;2023-12-07T03:04:05;30.77;;;12.27;;
15929;SDS011;8064;51.142;4.780;2023-12-07T03:06:31;38.43;;;11.63;;
15929;SDS011;8064;51.142;4.780;2023-12-07T03:08:57;45.97;;;11.70;;
15929;SDS011;8064;51.142;4.780;2023-12-07T03:11:23;36.50;;;12.00;;
15929;SDS011;8064;51.142;4.780;2023-12-07T03:13:49;26.40;;;10.27;;
15929;SDS011;8064;51.142;4.780;2023-12-07T03:16:15;35.90;;;12.30;;
15929;SDS011;8064;51.142;4.780;2023-12-07T03:18:40;37.57;;;11.27;;
15929;SDS011;8064;51.142;4.780;2023-12-07T03:21:06;31.07;;;10.50;;
15929;SDS011;8064;51.142;4.780;2023-12-07T03:23:32;36.07;;;10.53;;
15929;SDS011;8064;51.142;4.780;2023-12-07T03:25:58;27.33;;;10.40;;
15929;SDS011;8064;51.142;4.780;2023-12-07T03:28:24;29.13;;;11.23;;
15929;SDS011;8064;51.142;4.780;2023-12-07T03:30:49;26.00;;;10.67;;
15929;SDS011;8064;51.142;4.780;2023-12-07T03:33:15;37.63;;;11.70;;
15929;SDS011;8064;51.142;4.780;2023-12-07T03:35:41;35.30;;;10.77;;
15929;SDS011;8064;51.142;4.780;2023-12-07T03:38:07;21.80;;;11.90;;
15929;SDS011;8064;51.142;4.780;2023-12-07T03:40:32;21.57;;;11.73;;
15929;SDS011;8064;51.142;4.780;2023-12-07T03:42:58;21.63;;;11.57;;
15929;SDS011;8064;51.142;4.780;2023-12-07T03:45:24;19.90;;;11.40;;
15929;SDS011;8064;51.142;4.780;2023-12-07T03:47:50;24.03;;;12.30;;
15929;SDS011;8064;51.142;4.780;2023-12-07T03:50:15;23.73;;;11.83;;
15929;SDS011;8064;51.142;4.780;2023-12-07T03:52:41;23.00;;;11.70;;
15929;SDS011;8064;51.142;4.780;2023-12-07T03:55:07;20.63;;;11.00;;
15929;SDS011;8064;51.142;4.780;2023-12-07T03:57:33;25.77;;;11.93;;
15929;SDS011;8064;51.142;4.780;2023-12-07T03:59:59;26.33;;;13.47;;
15929;SDS011;8064;51.142;4.780;2023-12-07T04:02:25;24.97;;;13.27;;
15929;SDS011;8064;51.142;4.780;2023-12-07T04:04:50;22.90;;;12.57;;
15929;SDS011;8064;51.142;4.780;2023-12-07T04:07:16;28.90;;;13.43;;
15929;SDS011;8064;51.142;4.780;2023-12-07T04:09:42;27.63;;;13.00;;
15929;SDS011;8064;51.142;4.780;2023-12-07T04:12:08;36.80;;;12.73;;
15929;SDS011;8064;51.142;4.780;2023-12-07T04:14:34;29.00;;;13.60;;
15929;SDS011;8064;51.142;4.780;2023-12-07T04:16:59;25.17;;;13.07;;
15929;SDS011;8064;51.142;4.780;2023-12-07T04:19:25;27.17;;;14.10;;
15929;SDS011;8064;51.142;4.780;2023-12-07T04:21:51;28.57;;;14.73;;
15929;SDS011;8064;51.142;4.780;2023-12-07T04:24:17;28.87;;;15.53;;
15929;SDS011;8064;51.142;4.780;2023-12-07T04:26:42;31.53;;;15.87;;
15929;SDS011;8064;51.142;4.780;2023-12-07T04:29:08;25.40;;;14.03;;
15929;SDS011;8064;51.142;4.780;2023-12-07T04:31:34;26.23;;;14.00;;
15929;SDS011;8064;51.142;4.780;2023-12-07T04:34:00;25.70;;;14.00;;
15929;SDS011;8064;51.142;4.780;2023-12-07T04:36:26;25.97;;;14.93;;
15929;SDS011;8064;51.142;4.780;2023-12-07T04:38:52;24.97;;;14.40;;
15929;SDS011;8064;51.142;4.780;2023-12-07T04:41:18;25.87;;;14.60;;
15929;SDS011;8064;51.142;4.780;2023-12-07T04:43:43;28.63;;;14.97;;
15929;SDS011;8064;51.142;4.780;2023-12-07T04:46:09;28.40;;;15.70;;
15929;SDS011;8064;51.142;4.780;2023-12-07T04:48:35;28.57;;;14.93;;
15929;SDS011;8064;51.142;4.780;2023-12-07T04:51:00;27.90;;;14.83;;
15929;SDS011;8064;51.142;4.780;2023-12-07T04:53:26;26.40;;;14.20;;
15929;SDS011;8064;51.142;4.780;2023-12-07T04:55:52;22.50;;;13.30;;
15929;SDS011;8064;51.142;4.780;2023-12-07T04:58:18;23.30;;;12.97;;
15929;SDS011;8064;51.142;4.780;2023-12-07T05:00:43;24.13;;;12.83;;
15929;SDS011;8064;51.142;4.780;2023-12-07T05:03:09;26.47;;;13.83;;
15929;SDS011;8064;51.142;4.780;2023-12-07T05:05:35;22.47;;;13.87;;
15929;SDS011;8064;51.142;4.780;2023-12-07T05:08:01;20.83;;;13.07;;
15929;SDS011;8064;51.142;4.780;2023-12-07T05:10:27;24.17;;;13.27;;
15929;SDS011;8064;51.142;4.780;2023-12-07T05:12:53;22.03;;;12.57;;
15929;SDS011;8064;51.142;4.780;2023-12-07T05:15:18;22.40;;;13.80;;
15929;SDS011;8064;51.142;4.780;2023-12-07T05:17:44;22.57;;;14.50;;
15929;SDS011;8064;51.142;4.780;2023-12-07T05:20:10;24.23;;;14.77;;
15929;SDS011;8064;51.142;4.780;2023-12-07T05:22:37;21.70;;;14.43;;
15929;SDS011;8064;51.142;4.780;2023-12-07T05:25:03;24.37;;;15.20;;
15929;SDS011;8064;51.142;4.780;2023-12-07T05:27:30;22.17;;;15.27;;
15929;SDS011;8064;51.142;4.780;2023-12-07T05:29:55;24.87;;;16.60;;
15929;SDS011;8064;51.142;4.780;2023-12-07T05:32:21;20.47;;;14.20;;
15929;SDS011;8064;51.142;4.780;2023-12-07T05:34:47;22.97;;;15.60;;
15929;SDS011;8064;51.142;4.780;2023-12-07T05:37:13;20.37;;;13.70;;
15929;SDS011;8064;51.142;4.780;2023-12-07T05:39:38;20.57;;;13.73;;
15929;SDS011;8064;51.142;4.780;2023-12-07T05:42:05;18.43;;;11.93;;
15929;SDS011;8064;51.142;4.780;2023-12-07T05:44:31;16.77;;;12.53;;
15929;SDS011;8064;51.142;4.780;2023-12-07T05:46:57;21.90;;;12.87;;
15929;SDS011;8064;51.142;4.780;2023-12-07T05:49:23;20.53;;;13.63;;
15929;SDS011;8064;51.142;4.780;2023-12-07T05:51:49;17.37;;;12.03;;
15929;SDS011;8064;51.142;4.780;2023-12-07T05:54:14;18.63;;;12.77;;
15929;SDS011;8064;51.142;4.780;2023-12-07T05:56:41;17.23;;;11.70;;
15929;SDS011;8064;51.142;4.780;2023-12-07T05:59:08;19.63;;;12.63;;
15929;SDS011;8064;51.142;4.780;2023-12-07T06:01:33;18.97;;;12.63;;
15929;SDS011;8064;51.142;4.780;2023-12-07T06:03:59;18.23;;;11.97;;
15929;SDS011;8064;51.142;4.780;2023-12-07T06:06:25;18.70;;;12.07;;
15929;SDS011;8064;51.142;4.780;2023-12-07T06:08:50;17.33;;;11.87;;
15929;SDS011;8064;51.142;4.780;2023-12-07T06:11:16;16.57;;;11.87;;
15929;SDS011;8064;51.142;4.780;2023-12-07T06:13:42;20.37;;;11.27;;
15929;SDS011;8064;51.142;4.780;2023-12-07T06:16:11;19.03;;;11.67;;
15929;SDS011;8064;51.142;4.780;2023-12-07T06:18:38;15.20;;;11.20;;
15929;SDS011;8064;51.142;4.780;2023-12-07T06:21:04;18.20;;;10.87;;
15929;SDS011;8064;51.142;4.780;2023-12-07T06:23:29;14.77;;;10.53;;
15929;SDS011;8064;51.142;4.780;2023-12-07T06:25:55;15.37;;;10.57;;
15929;SDS011;8064;51.142;4.780;2023-12-07T06:28:21;15.23;;;10.67;;
15929;SDS011;8064;51.142;4.780;2023-12-07T06:30:47;14.77;;;9.60;;
15929;SDS011;8064;51.142;4.780;2023-12-07T06:33:13;13.90;;;9.40;;
15929;SDS011;8064;51.142;4.780;2023-12-07T06:35:39;16.80;;;10.17;;
15929;SDS011;8064;51.142;4.780;2023-12-07T06:38:05;15.70;;;9.87;;
15929;SDS011;8064;51.142;4.780;2023-12-07T06:40:30;13.70;;;9.47;;
15929;SDS011;8064;51.142;4.780;2023-12-07T06:42:56;14.87;;;10.43;;
15929;SDS011;8064;51.142;4.780;2023-12-07T06:45:22;14.27;;;8.97;;
15929;SDS011;8064;51.142;4.780;2023-12-07T06:47:48;12.33;;;9.23;;
15929;SDS011;8064;51.142;4.780;2023-12-07T06:50:14;12.13;;;9.13;;
15929;SDS011;8064;51.142;4.780;2023-12-07T06:52:39;15.53;;;9.17;;
15929;SDS011;8064;51.142;4.780;2023-12-07T06:55:05;12.77;;;8.73;;
15929;SDS011;8064;51.142;4.780;2023-12-07T06:57:32;10.63;;;8.03;;
15929;SDS011;8064;51.142;4.780;2023-12-07T06:59:58;11.77;;;8.73;;
15929;SDS011;8064;51.142;4.780;2023-12-07T07:02:24;15.33;;;8.73;;
15929;SDS011;8064;51.142;4.780;2023-12-07T07:04:50;11.70;;;8.23;;
15929;SDS011;8064;51.142;4.780;2023-12-07T07:07:16;12.73;;;9.63;;
15929;SDS011;8064;51.142;4.780;2023-12-07T07:09:42;12.63;;;8.80;;
15929;SDS011;8064;51.142;4.780;2023-12-07T07:12:08;14.13;;;8.70;;
15929;SDS011;8064;51.142;4.780;2023-12-07T07:14:35;14.13;;;8.83;;
15929;SDS011;8064;51.142;4.780;2023-12-07T07:17:01;11.13;;;8.77;;
15929;SDS011;8064;51.142;4.780;2023-12-07T07:19:26;11.80;;;8.73;;
15929;SDS011;8064;51.142;4.780;2023-12-07T07:21:52;13.70;;;8.73;;
15929;SDS011;8064;51.142;4.780;2023-12-07T07:24:18;11.90;;;8.80;;
15929;SDS011;8064;51.142;4.780;2023-12-07T07:26:43;12.03;;;8.80;;
15929;SDS011;8064;51.142;4.780;2023-12-07T07:29:09;11.17;;;8.47;;
15929;SDS011;8064;51.142;4.780;2023-12-07T07:31:35;11.67;;;8.23;;
15929;SDS011;8064;51.142;4.780;2023-12-07T07:34:01;11.30;;;7.83;;
15929;SDS011;8064;51.142;4.780;2023-12-07T07:36:27;11.80;;;8.60;;
15929;SDS011;8064;51.142;4.780;2023-12-07T07:38:54;12.93;;;8.70;;
15929;SDS011;8064;51.142;4.780;2023-12-07T07:41:20;14.63;;;9.30;;
15929;SDS011;8064;51.142;4.780;2023-12-07T07:43:45;14.30;;;8.80;;
15929;SDS011;8064;51.142;4.780;2023-12-07T07:46:11;12.47;;;8.47;;
15929;SDS011;8064;51.142;4.780;2023-12-07T07:48:37;11.03;;;8.80;;
15929;SDS011;8064;51.142;4.780;2023-12-07T07:51:04;14.57;;;9.17;;
15929;SDS011;8064;51.142;4.780;2023-12-07T07:53:33;11.20;;;8.60;;
15929;SDS011;8064;51.142;4.780;2023-12-07T07:55:59;11.20;;;8.03;;
15929;SDS011;8064;51.142;4.780;2023-12-07T07:58:25;13.90;;;8.93;;
15929;SDS011;8064;51.142;4.780;2023-12-07T08:00:52;11.57;;;8.17;;
15929;SDS011;8064;51.142;4.780;2023-12-07T08:03:18;12.40;;;8.60;;
15929;SDS011;8064;51.142;4.780;2023-12-07T08:05:43;11.50;;;8.60;;
15929;SDS011;8064;51.142;4.780;2023-12-07T08:08:10;13.57;;;8.30;;
15929;SDS011;8064;51.142;4.780;2023-12-07T08:10:36;10.87;;;8.00;;
15929;SDS011;8064;51.142;4.780;2023-12-07T08:13:03;12.07;;;8.43;;
15929;SDS011;8064;51.142;4.780;2023-12-07T08:15:29;12.60;;;8.67;;
15929;SDS011;8064;51.142;4.780;2023-12-07T08:17:54;11.70;;;8.17;;
15929;SDS011;8064;51.142;4.780;2023-12-07T08:20:21;13.17;;;8.70;;
15929;SDS011;8064;51.142;4.780;2023-12-07T08:22:47;11.73;;;8.43;;
15929;SDS011;8064;51.142;4.780;2023-12-07T08:25:12;11.70;;;8.40;;
15929;SDS011;8064;51.142;4.780;2023-12-07T08:27:38;10.77;;;7.83;;
15929;SDS011;8064;51.142;4.780;2023-12-07T08:30:05;11.37;;;8.87;;
15929;SDS011;8064;51.142;4.780;2023-12-07T08:32:34;14.53;;;8.83;;
15929;SDS011;8064;51.142;4.780;2023-12-07T08:35:00;15.50;;;9.77;;
15929;SDS011;8064;51.142;4.780;2023-12-07T08:37:26;10.80;;;7.87;;
15929;SDS011;8064;51.142;4.780;2023-12-07T08:39:51;12.23;;;8.33;;
15929;SDS011;8064;51.142;4.780;2023-12-07T08:42:17;12.23;;;8.40;;
15929;SDS011;8064;51.142;4.780;2023-12-07T08:44:43;12.80;;;8.60;;
15929;SDS011;8064;51.142;4.780;2023-12-07T08:47:09;11.40;;;8.60;;
15929;SDS011;8064;51.142;4.780;2023-12-07T08:49:35;13.27;;;8.97;;
15929;SDS011;8064;51.142;4.780;2023-12-07T08:52:02;11.20;;;7.73;;
15929;SDS011;8064;51.142;4.780;2023-12-07T08:54:28;10.57;;;8.00;;
15929;SDS011;8064;51.142;4.780;2023-12-07T08:56:54;12.93;;;8.60;;
15929;SDS011;8064;51.142;4.780;2023-12-07T08:59:20;12.73;;;8.77;;
15929;SDS011;8064;51.142;4.780;2023-12-07T09:01:46;11.50;;;8.30;;
15929;SDS011;8064;51.142;4.780;2023-12-07T09:04:12;12.03;;;9.10;;
15929;SDS011;8064;51.142;4.780;2023-12-07T09:06:38;11.40;;;8.63;;
15929;SDS011;8064;51.142;4.780;2023-12-07T09:09:03;10.23;;;8.17;;
15929;SDS011;8064;51.142;4.780;2023-12-07T09:11:29;13.07;;;8.50;;
15929;SDS011;8064;51.142;4.780;2023-12-07T09:13:56;12.97;;;8.47;;
15929;SDS011;8064;51.142;4.780;2023-12-07T09:16:22;12.10;;;8.73;;
15929;SDS011;8064;51.142;4.780;2023-12-07T09:18:48;10.93;;;8.00;;
15929;SDS011;8064;51.142;4.780;2023-12-07T09:21:13;10.07;;;7.90;;
15929;SDS011;8064;51.142;4.780;2023-12-07T09:23:39;12.03;;;7.67;;
15929;SDS011;8064;51.142;4.780;2023-12-07T09:26:05;11.63;;;8.00;;
15929;SDS011;8064;51.142;4.780;2023-12-07T09:28:31;11.33;;;7.90;;
15929;SDS011;8064;51.142;4.780;2023-12-07T09:30:58;11.17;;;8.13;;
15929;SDS011;8064;51.142;4.780;2023-12-07T09:33:24;10.70;;;8.27;;
15929;SDS011;8064;51.142;4.780;2023-12-07T09:35:49;11.13;;;8.07;;
15929;SDS011;8064;51.142;4.780;2023-12-07T09:38:16;9.07;;;7.77;;
15929;SDS011;8064;51.142;4.780;2023-12-07T09:40:42;9.53;;;7.67;;
15929;SDS011;8064;51.142;4.780;2023-12-07T09:43:08;9.47;;;7.60;;
15929;SDS011;8064;51.142;4.780;2023-12-07T09:45:34;10.10;;;8.10;;
15929;SDS011;8064;51.142;4.780;2023-12-07T09:48:00;8.33;;;7.47;;
15929;SDS011;8064;51.142;4.780;2023-12-07T09:50:26;10.10;;;7.83;;
15929;SDS011;8064;51.142;4.780;2023-12-07T09:52:54;9.43;;;7.97;;
15929;SDS011;8064;51.142;4.780;2023-12-07T09:55:21;10.37;;;7.67;;
15929;SDS011;8064;51.142;4.780;2023-12-07T09:57:48;10.10;;;7.43;;
15929;SDS011;8064;51.142;4.780;2023-12-07T10:00:14;8.53;;;7.07;;
15929;SDS011;8064;51.142;4.780;2023-12-07T10:02:41;7.87;;;7.03;;
15929;SDS011;8064;51.142;4.780;2023-12-07T10:05:09;8.00;;;7.13;;
15929;SDS011;8064;51.142;4.780;2023-12-07T10:07:39;8.33;;;6.57;;
15929;SDS011;8064;51.142;4.780;2023-12-07T10:10:06;7.87;;;6.93;;
15929;SDS011;8064;51.142;4.780;2023-12-07T10:12:33;7.77;;;6.37;;
15929;SDS011;8064;51.142;4.780;2023-12-07T10:15:01;9.90;;;6.50;;
15929;SDS011;8064;51.142;4.780;2023-12-07T10:17:49;8.50;;;6.77;;
15929;SDS011;8064;51.142;4.780;2023-12-07T10:20:17;10.23;;;6.80;;
15929;SDS011;8064;51.142;4.780;2023-12-07T10:22:48;7.30;;;6.53;;
15929;SDS011;8064;51.142;4.780;2023-12-07T10:25:26;8.33;;;6.83;;
15929;SDS011;8064;51.142;4.780;2023-12-07T10:27:52;11.00;;;7.07;;
15929;SDS011;8064;51.142;4.780;2023-12-07T10:30:18;9.10;;;7.37;;
15929;SDS011;8064;51.142;4.780;2023-12-07T10:32:50;8.60;;;6.60;;
15929;SDS011;8064;51.142;4.780;2023-12-07T10:35:17;8.88;;;6.72;;
15929;SDS011;8064;51.142;4.780;2023-12-07T10:37:44;8.13;;;5.97;;
15929;SDS011;8064;51.142;4.780;2023-12-07T10:40:10;7.85;;;6.50;;
15929;SDS011;8064;51.142;4.780;2023-12-07T10:42:36;11.02;;;6.70;;
15929;SDS011;8064;51.142;4.780;2023-12-07T10:45:04;7.72;;;6.40;;
15929;SDS011;8064;51.142;4.780;2023-12-07T10:47:33;9.00;;;6.10;;
15929;SDS011;8064;51.142;4.780;2023-12-07T10:50:02;7.32;;;6.25;;
15929;SDS011;8064;51.142;4.780;2023-12-07T10:52:31;7.55;;;6.45;;
15929;SDS011;8064;51.142;4.780;2023-12-07T10:55:03;9.00;;;6.30;;
15929;SDS011;8064;51.142;4.780;2023-12-07T10:57:35;10.05;;;6.65;;
15929;SDS011;8064;51.142;4.780;2023-12-07T11:00:02;10.07;;;6.60;;
15929;SDS011;8064;51.142;4.780;2023-12-07T11:02:29;8.88;;;6.30;;
15929;SDS011;8064;51.142;4.780;2023-12-07T11:04:59;7.40;;;6.40;;
15929;SDS011;8064;51.142;4.780;2023-12-07T11:07:30;6.60;;;6.00;;
15929;SDS011;8064;51.142;4.780;2023-12-07T11:10:07;7.32;;;6.60;;
15929;SDS011;8064;51.142;4.780;2023-12-07T11:12:46;10.68;;;6.70;;
15929;SDS011;8064;51.142;4.780;2023-12-07T11:15:18;7.35;;;5.93;;
15929;SDS011;8064;51.142;4.780;2023-12-07T11:17:51;6.80;;;6.10;;
15929;SDS011;8064;51.142;4.780;2023-12-07T11:20:20;8.10;;;6.20;;
15929;SDS011;8064;51.142;4.780;2023-12-07T11:22:47;7.87;;;6.30;;
15929;SDS011;8064;51.142;4.780;2023-12-07T11:25:14;7.03;;;5.50;;
15929;SDS011;8064;51.142;4.780;2023-12-07T11:27:40;8.23;;;6.67;;
15929;SDS011;8064;51.142;4.780;2023-12-07T11:30:12;7.60;;;5.67;;
15929;SDS011;8064;51.142;4.780;2023-12-07T11:32:40;9.87;;;6.40;;
15929;SDS011;8064;51.142;4.780;2023-12-07T11:35:06;9.10;;;5.87;;
15929;SDS011;8064;51.142;4.780;2023-12-07T11:38:00;7.67;;;5.90;;
15929;SDS011;8064;51.142;4.780;2023-12-07T11:40:32;8.00;;;6.17;;
15929;SDS011;8064;51.142;4.780;2023-12-07T11:43:01;9.10;;;5.90;;
15929;SDS011;8064;51.142;4.780;2023-12-07T11:45:36;9.40;;;6.30;;
15929;SDS011;8064;51.142;4.780;2023-12-07T11:48:05;8.33;;;6.07;;
15929;SDS011;8064;51.142;4.780;2023-12-07T11:50:33;8.30;;;6.03;;
15929;SDS011;8064;51.142;4.780;2023-12-07T11:52:58;8.70;;;6.43;;
15929;SDS011;8064;51.142;4.780;2023-12-07T11:55:24;8.33;;;6.50;;
15929;SDS011;8064;51.142;4.780;2023-12-07T11:57:50;6.97;;;5.73;;
15929;SDS011;8064;51.142;4.780;2023-12-07T12:00:16;8.37;;;6.30;;
15929;SDS011;8064;51.142;4.780;2023-12-07T12:02:42;9.53;;;5.20;;
15929;SDS011;8064;51.142;4.780;2023-12-07T12:05:12;7.83;;;5.93;;
15929;SDS011;8064;51.142;4.780;2023-12-07T12:07:38;8.57;;;6.13;;
15929;SDS011;8064;51.142;4.780;2023-12-07T12:10:04;8.83;;;6.17;;
15929;SDS011;8064;51.142;4.780;2023-12-07T12:12:32;12.13;;;6.60;;
15929;SDS011;8064;51.142;4.780;2023-12-07T12:14:58;9.13;;;6.27;;
15929;SDS011;8064;51.142;4.780;2023-12-07T12:17:24;8.80;;;6.10;;
15929;SDS011;8064;51.142;4.780;2023-12-07T12:19:51;11.40;;;6.10;;
15929;SDS011;8064;51.142;4.780;2023-12-07T12:22:19;9.20;;;6.00;;
15929;SDS011;8064;51.142;4.780;2023-12-07T12:24:46;8.27;;;6.30;;
15929;SDS011;8064;51.142;4.780;2023-12-07T12:27:13;12.27;;;6.23;;
15929;SDS011;8064;51.142;4.780;2023-12-07T12:29:39;7.57;;;5.97;;
15929;SDS011;8064;51.142;4.780;2023-12-07T12:32:06;8.20;;;5.77;;
15929;SDS011;8064;51.142;4.780;2023-12-07T12:34:34;8.33;;;5.60;;
15929;SDS011;8064;51.142;4.780;2023-12-07T12:37:00;8.17;;;5.97;;
15929;SDS011;8064;51.142;4.780;2023-12-07T12:39:28;8.80;;;5.60;;
15929;SDS011;8064;51.142;4.780;2023-12-07T12:41:56;7.87;;;5.47;;
15929;SDS011;8064;51.142;4.780;2023-12-07T12:44:24;7.80;;;5.37;;
15929;SDS011;8064;51.142;4.780;2023-12-07T12:46:50;8.60;;;5.67;;
15929;SDS011;8064;51.142;4.780;2023-12-07T12:49:19;8.37;;;5.47;;
15929;SDS011;8064;51.142;4.780;2023-12-07T12:51:45;10.27;;;6.00;;
15929;SDS011;8064;51.142;4.780;2023-12-07T12:54:13;9.70;;;6.10;;
15929;SDS011;8064;51.142;4.780;2023-12-07T12:56:39;8.20;;;5.80;;
15929;SDS011;8064;51.142;4.780;2023-12-07T12:59:06;8.13;;;5.67;;
15929;SDS011;8064;51.142;4.780;2023-12-07T13:01:32;9.00;;;5.27;;
15929;SDS011;8064;51.142;4.780;2023-12-07T13:03:58;10.03;;;5.80;;
15929;SDS011;8064;51.142;4.780;2023-12-07T13:06:24;7.50;;;5.60;;
15929;SDS011;8064;51.142;4.780;2023-12-07T13:08:50;8.70;;;5.23;;
15929;SDS011;8064;51.142;4.780;2023-12-07T13:11:17;7.37;;;5.80;;
15929;SDS011;8064;51.142;4.780;2023-12-07T13:13:44;8.60;;;5.70;;
15929;SDS011;8064;51.142;4.780;2023-12-07T13:16:10;9.40;;;5.90;;
15929;SDS011;8064;51.142;4.780;2023-12-07T13:18:37;10.17;;;6.77;;
15929;SDS011;8064;51.142;4.780;2023-12-07T13:21:03;9.13;;;6.03;;
15929;SDS011;8064;51.142;4.780;2023-12-07T13:23:30;8.70;;;6.17;;
15929;SDS011;8064;51.142;4.780;2023-12-07T13:25:56;7.37;;;5.57;;
15929;SDS011;8064;51.142;4.780;2023-12-07T13:28:22;10.03;;;5.83;;
15929;SDS011;8064;51.142;4.780;2023-12-07T13:30:48;8.10;;;4.87;;
15929;SDS011;8064;51.142;4.780;2023-12-07T13:33:14;7.53;;;5.83;;
15929;SDS011;8064;51.142;4.780;2023-12-07T13:35:40;11.50;;;6.00;;
15929;SDS011;8064;51.142;4.780;2023-12-07T13:38:05;7.63;;;5.40;;
15929;SDS011;8064;51.142;4.780;2023-12-07T13:40:31;7.40;;;5.67;;
15929;SDS011;8064;51.142;4.780;2023-12-07T13:42:57;8.37;;;5.80;;
15929;SDS011;8064;51.142;4.780;2023-12-07T13:45:23;7.10;;;5.00;;
15929;SDS011;8064;51.142;4.780;2023-12-07T13:47:48;6.13;;;5.00;;
15929;SDS011;8064;51.142;4.780;2023-12-07T13:50:14;10.23;;;5.63;;
15929;SDS011;8064;51.142;4.780;2023-12-07T13:52:40;8.47;;;5.53;;
15929;SDS011;8064;51.142;4.780;2023-12-07T13:55:07;8.80;;;5.70;;
15929;SDS011;8064;51.142;4.780;2023-12-07T13:57:34;9.57;;;5.07;;
15929;SDS011;8064;51.142;4.780;2023-12-07T14:00:00;9.13;;;5.07;;
15929;SDS011;8064;51.142;4.780;2023-12-07T14:02:26;7.87;;;5.57;;
15929;SDS011;8064;51.142;4.780;2023-12-07T14:04:53;9.23;;;5.03;;
15929;SDS011;8064;51.142;4.780;2023-12-07T14:07:20;9.10;;;5.47;;
15929;SDS011;8064;51.142;4.780;2023-12-07T14:09:49;9.57;;;4.80;;
15929;SDS011;8064;51.142;4.780;2023-12-07T14:12:16;10.20;;;5.30;;
15929;SDS011;8064;51.142;4.780;2023-12-07T14:14:43;9.43;;;5.70;;
15929;SDS011;8064;51.142;4.780;2023-12-07T14:17:12;7.93;;;4.70;;
15929;SDS011;8064;51.142;4.780;2023-12-07T14:19:40;7.17;;;4.83;;
15929;SDS011;8064;51.142;4.780;2023-12-07T14:22:06;8.07;;;4.80;;
15929;SDS011;8064;51.142;4.780;2023-12-07T14:24:35;8.50;;;5.13;;
15929;SDS011;8064;51.142;4.780;2023-12-07T14:27:01;10.07;;;4.90;;
15929;SDS011;8064;51.142;4.780;2023-12-07T14:29:29;7.37;;;5.20;;
15929;SDS011;8064;51.142;4.780;2023-12-07T14:31:57;8.00;;;5.17;;
15929;SDS011;8064;51.142;4.780;2023-12-07T14:34:23;7.00;;;4.50;;
15929;SDS011;8064;51.142;4.780;2023-12-07T14:36:50;10.13;;;4.63;;
15929;SDS011;8064;51.142;4.780;2023-12-07T14:39:16;7.17;;;5.23;;
15929;SDS011;8064;51.142;4.780;2023-12-07T14:41:43;5.33;;;4.57;;